createdAt,value
2019-02-23T00:01:45.964Z,16.03
2019-02-23T00:04:15.211Z,14.80
2019-02-23T00:06:44.454Z,18.83
2019-02-23T00:09:13.793Z,14.47
2019-02-23T00:11:43.109Z,17.40
2019-02-23T00:14:12.629Z,14.67
2019-02-23T00:16:41.898Z,17.53
2019-02-23T00:19:11.302Z,16.90
2019-02-23T00:21:40.575Z,18.63
2019-02-23T00:24:09.803Z,21.20
2019-02-23T00:26:39.063Z,19.17
2019-02-23T00:29:08.298Z,21.07
2019-02-23T00:31:37.567Z,17.70
2019-02-23T00:34:06.798Z,18.03
2019-02-23T00:36:35.984Z,21.13
2019-02-23T00:39:05.851Z,17.73
2019-02-23T00:41:36.739Z,16.73
2019-02-23T00:44:05.975Z,17.53
2019-02-23T00:46:49.232Z,18.67
2019-02-23T00:49:18.470Z,18.00
2019-02-23T00:51:47.776Z,17.23
2019-02-23T00:54:17.002Z,17.07
2019-02-23T00:56:46.265Z,17.93
2019-02-23T00:59:15.489Z,18.50
2019-02-23T01:01:44.682Z,19.10
2019-02-23T01:04:13.943Z,16.47
2019-02-23T01:06:43.194Z,17.43
2019-02-23T01:09:12.428Z,18.33
2019-02-23T01:11:41.660Z,17.70
2019-02-23T01:14:10.899Z,18.10
2019-02-23T01:16:40.135Z,18.30
2019-02-23T01:19:09.419Z,16.93
2019-02-23T01:21:38.668Z,16.27
2019-02-23T01:24:07.927Z,16.77
2019-02-23T01:26:37.155Z,14.80
2019-02-23T01:29:06.405Z,17.37
2019-02-23T01:31:35.639Z,16.07
2019-02-23T01:34:04.887Z,13.90
2019-02-23T01:36:34.123Z,15.47
2019-02-23T01:39:04.235Z,16.20
2019-02-23T01:41:35.083Z,15.23
2019-02-23T01:44:04.418Z,15.23
2019-02-23T01:46:33.651Z,17.73
2019-02-23T01:49:02.904Z,16.20
2019-02-23T01:51:32.141Z,15.90
2019-02-23T01:54:01.463Z,17.13
2019-02-23T01:56:30.777Z,15.60
2019-02-23T01:58:59.973Z,18.23
2019-02-23T02:01:29.213Z,15.80
2019-02-23T02:03:58.483Z,14.87
2019-02-23T02:06:27.730Z,17.83
2019-02-23T02:08:56.974Z,17.00
2019-02-23T02:11:26.399Z,16.27
2019-02-23T02:13:55.656Z,15.00
2019-02-23T02:16:25.073Z,16.00
2019-02-23T02:18:54.269Z,15.33
2019-02-23T02:21:23.496Z,15.80
2019-02-23T02:23:52.742Z,14.50
2019-02-23T02:26:22.513Z,13.70
2019-02-23T02:28:51.810Z,18.33
2019-02-23T02:31:21.071Z,13.23
2019-02-23T02:33:53.563Z,13.77
2019-02-23T02:36:22.891Z,16.17
2019-02-23T02:38:52.159Z,13.10
2019-02-23T02:41:21.386Z,13.00
2019-02-23T02:43:50.631Z,15.23
2019-02-23T02:46:19.886Z,13.17
2019-02-23T02:48:49.159Z,12.53
2019-02-23T02:51:18.422Z,15.27
2019-02-23T02:53:47.658Z,14.57
2019-02-23T02:56:16.920Z,15.70
2019-02-23T02:58:47.272Z,12.17
2019-02-23T03:01:16.631Z,14.70
2019-02-23T03:03:45.918Z,16.07
2019-02-23T03:06:15.180Z,13.10
2019-02-23T03:08:44.478Z,14.07
2019-02-23T03:11:13.675Z,14.87
2019-02-23T03:13:42.907Z,12.67
2019-02-23T03:16:12.149Z,13.60
2019-02-23T03:18:41.385Z,13.50
2019-02-23T03:21:10.633Z,13.87
2019-02-23T03:23:39.803Z,11.37
2019-02-23T03:26:09.044Z,11.43
2019-02-23T03:28:38.286Z,14.37
2019-02-23T03:31:07.539Z,13.60
2019-02-23T03:33:36.851Z,14.27
2019-02-23T03:36:06.082Z,16.00
2019-02-23T03:38:35.329Z,16.17
2019-02-23T03:41:04.642Z,13.50
2019-02-23T03:43:33.896Z,13.50
2019-02-23T03:46:03.136Z,12.87
2019-02-23T03:48:32.407Z,14.00
2019-02-23T03:51:01.640Z,15.03
2019-02-23T03:53:30.907Z,13.83
2019-02-23T03:56:00.147Z,18.63
2019-02-23T03:58:29.411Z,16.00
2019-02-23T04:00:58.637Z,14.97
2019-02-23T04:03:28.324Z,15.47
2019-02-23T04:05:57.556Z,12.23
2019-02-23T04:08:26.813Z,15.43
2019-02-23T04:10:56.045Z,15.37
2019-02-23T04:13:25.289Z,17.63
2019-02-23T04:15:54.518Z,14.17
2019-02-23T04:18:23.821Z,15.30
2019-02-23T04:21:01.189Z,16.73
2019-02-23T04:23:23.933Z,15.93
2019-02-23T04:25:53.278Z,17.33
2019-02-23T04:28:22.566Z,14.63
2019-02-23T04:30:51.790Z,17.40
2019-02-23T04:33:21.109Z,17.67
2019-02-23T04:35:50.338Z,15.27
2019-02-23T04:38:19.914Z,18.53
2019-02-23T04:40:49.079Z,19.30
2019-02-23T04:43:18.318Z,19.37
2019-02-23T04:45:47.549Z,18.87
2019-02-23T04:48:16.807Z,18.80
2019-02-23T04:50:46.056Z,20.13
2019-02-23T04:53:15.316Z,21.77
2019-02-23T04:55:44.599Z,20.03
2019-02-23T04:58:13.934Z,24.43
2019-02-23T05:00:45.011Z,17.27
2019-02-23T05:03:14.078Z,18.83
2019-02-23T05:05:43.318Z,19.50
2019-02-23T05:08:12.557Z,18.40
2019-02-23T05:10:43.421Z,19.10
2019-02-23T05:13:12.732Z,18.87
2019-02-23T05:15:41.988Z,21.00
2019-02-23T05:18:11.222Z,21.87
2019-02-23T05:20:40.535Z,18.73
2019-02-23T05:23:09.749Z,21.07
2019-02-23T05:25:39.024Z,18.70
2019-02-23T05:28:08.264Z,21.17
2019-02-23T05:30:37.558Z,18.90
2019-02-23T05:33:06.790Z,21.00
2019-02-23T05:35:36.035Z,19.23
2019-02-23T05:38:05.261Z,20.87
2019-02-23T05:40:34.515Z,20.57
2019-02-23T05:43:40.881Z,19.60
2019-02-23T05:46:10.268Z,22.33
2019-02-23T05:48:39.495Z,20.57
2019-02-23T05:51:08.756Z,19.80
2019-02-23T05:53:37.995Z,22.30
2019-02-23T05:56:07.258Z,22.43
2019-02-23T05:58:36.496Z,22.07
2019-02-23T06:01:05.807Z,19.90
2019-02-23T06:03:35.245Z,21.77
2019-02-23T06:06:04.511Z,22.53
2019-02-23T06:08:33.807Z,21.37
2019-02-23T06:11:03.082Z,21.60
2019-02-23T06:13:32.300Z,20.47
2019-02-23T06:16:06.362Z,22.00
2019-02-23T06:18:35.871Z,23.60
2019-02-23T06:21:05.189Z,23.30
2019-02-23T06:23:35.406Z,22.73
2019-02-23T06:26:04.639Z,22.40
2019-02-23T06:28:33.873Z,23.93
2019-02-23T06:31:03.210Z,20.87
2019-02-23T06:33:32.561Z,27.57
2019-02-23T06:36:02.792Z,22.80
2019-02-23T06:38:32.042Z,25.70
2019-02-23T06:41:01.304Z,19.57
2019-02-23T06:43:30.568Z,23.27
2019-02-23T06:45:59.826Z,25.60
2019-02-23T06:48:29.085Z,25.47
2019-02-23T06:50:58.333Z,26.83
2019-02-23T06:53:27.595Z,25.87
2019-02-23T06:55:56.932Z,28.27
2019-02-23T06:58:26.183Z,27.27
2019-02-23T07:00:55.473Z,29.30
2019-02-23T07:03:25.681Z,29.70
2019-02-23T07:05:55.117Z,29.37
2019-02-23T07:08:24.372Z,28.03
2019-02-23T07:10:53.626Z,29.50
2019-02-23T07:13:22.857Z,26.77
2019-02-23T07:15:52.103Z,27.00
2019-02-23T07:18:21.326Z,31.17
2019-02-23T07:20:50.591Z,28.27
2019-02-23T07:23:19.848Z,30.90
2019-02-23T07:25:49.089Z,29.90
2019-02-23T07:28:18.362Z,29.97
2019-02-23T07:30:47.618Z,28.27
2019-02-23T07:33:23.707Z,29.50
2019-02-23T07:35:47.736Z,27.77
2019-02-23T07:38:17.006Z,30.00
2019-02-23T07:40:46.222Z,28.40
2019-02-23T07:43:15.754Z,32.50
2019-02-23T07:45:45.002Z,29.63
2019-02-23T07:48:14.262Z,30.13
2019-02-23T07:50:43.596Z,29.23
2019-02-23T07:53:13.011Z,31.07
2019-02-23T07:55:42.250Z,34.30
2019-02-23T07:58:11.587Z,32.50
2019-02-23T08:00:40.948Z,31.60
2019-02-23T08:03:10.228Z,31.93
2019-02-23T08:05:39.463Z,30.60
2019-02-23T08:08:08.776Z,29.20
2019-02-23T08:10:38.021Z,28.90
2019-02-23T08:13:07.309Z,31.67
2019-02-23T08:15:36.639Z,27.27
2019-02-23T08:18:05.915Z,28.03
2019-02-23T08:20:35.206Z,30.23
2019-02-23T08:23:04.551Z,30.03
2019-02-23T08:25:33.788Z,27.60
2019-02-23T08:28:03.047Z,31.50
2019-02-23T08:30:32.287Z,32.70
2019-02-23T08:33:01.535Z,28.07
2019-02-23T08:35:30.789Z,31.57
2019-02-23T08:38:00.078Z,31.10
2019-02-23T08:40:29.315Z,27.80
2019-02-23T08:42:58.581Z,31.10
2019-02-23T08:45:28.878Z,30.87
2019-02-23T08:47:58.163Z,32.10
2019-02-23T08:50:27.383Z,31.20
2019-02-23T08:52:56.648Z,31.03
2019-02-23T08:55:25.891Z,33.70
2019-02-23T08:57:55.142Z,33.73
2019-02-23T09:00:24.756Z,32.47
2019-02-23T09:02:54.009Z,34.60
2019-02-23T09:05:23.290Z,30.33
2019-02-23T09:07:52.569Z,34.63
2019-02-23T09:10:21.847Z,28.00
2019-02-23T09:12:51.134Z,31.83
2019-02-23T09:15:22.277Z,33.37
2019-02-23T09:17:51.254Z,34.03
2019-02-23T09:20:28.759Z,30.07
2019-02-23T09:22:59.836Z,29.90
2019-02-23T09:25:22.342Z,34.23
2019-02-23T09:27:51.595Z,34.40
2019-02-23T09:30:20.882Z,32.53
2019-02-23T09:32:58.006Z,36.20
2019-02-23T09:35:27.288Z,32.03
2019-02-23T09:37:57.487Z,33.50
2019-02-23T09:40:26.761Z,33.93
2019-02-23T09:42:55.974Z,33.23
2019-02-23T09:45:25.242Z,33.00
2019-02-23T09:47:54.463Z,33.50
2019-02-23T09:50:23.726Z,35.30
2019-02-23T09:52:53.039Z,30.03
2019-02-23T09:55:22.307Z,31.57
2019-02-23T09:57:51.533Z,34.73
2019-02-23T10:00:20.967Z,29.23
2019-02-23T10:02:50.212Z,30.93
2019-02-23T10:05:19.490Z,31.90
2019-02-23T10:07:48.780Z,33.10
2019-02-23T10:10:18.035Z,32.67
2019-02-23T10:12:47.318Z,28.10
2019-02-23T10:15:16.575Z,29.00
2019-02-23T10:17:45.846Z,30.60
2019-02-23T10:20:15.586Z,32.80
2019-02-23T10:22:44.904Z,32.87
2019-02-23T10:25:14.162Z,32.83
2019-02-23T10:27:43.396Z,30.27
2019-02-23T10:30:14.015Z,31.77
2019-02-23T10:32:44.212Z,28.30
2019-02-23T10:35:14.116Z,28.73
2019-02-23T10:37:43.347Z,33.17
2019-02-23T10:40:13.710Z,28.17
2019-02-23T10:42:42.952Z,28.23
2019-02-23T10:45:13.051Z,28.17
2019-02-23T10:47:42.309Z,27.57
2019-02-23T10:50:13.005Z,24.90
2019-02-23T10:52:42.283Z,29.73
2019-02-23T10:55:13.959Z,26.00
2019-02-23T10:57:43.264Z,26.30
2019-02-23T11:00:16.888Z,28.80
2019-02-23T11:02:47.194Z,27.30
2019-02-23T11:05:17.320Z,22.87
2019-02-23T11:07:46.639Z,28.77
2019-02-23T11:10:16.755Z,25.40
2019-02-23T11:12:46.010Z,24.67
2019-02-23T11:15:17.317Z,25.00
2019-02-23T11:17:46.547Z,26.73
2019-02-23T11:20:16.229Z,27.57
2019-02-23T11:22:46.434Z,25.73
2019-02-23T11:25:15.702Z,23.30
2019-02-23T11:27:46.918Z,24.03
2019-02-23T11:30:16.515Z,23.97
2019-02-23T11:32:45.748Z,23.63
2019-02-23T11:35:17.499Z,26.30
2019-02-23T11:37:48.078Z,21.90
2019-02-23T11:40:17.353Z,26.47
2019-02-23T11:42:46.692Z,24.27
2019-02-23T11:45:15.968Z,21.23
2019-02-23T11:47:45.278Z,24.73
2019-02-23T11:50:15.778Z,25.43
2019-02-23T11:52:45.045Z,22.70
2019-02-23T11:55:14.290Z,24.27
2019-02-23T11:57:43.618Z,24.90
2019-02-23T12:00:14.101Z,21.80
2019-02-23T12:02:52.003Z,21.97
2019-02-23T12:05:14.231Z,22.77
2019-02-23T12:07:43.548Z,21.97
2019-02-23T12:10:15.115Z,22.00
2019-02-23T12:12:44.386Z,20.40
2019-02-23T12:15:13.658Z,19.53
2019-02-23T12:17:42.938Z,21.53
2019-02-23T12:20:12.278Z,23.27
2019-02-23T12:22:41.567Z,22.57
2019-02-23T12:25:13.031Z,20.90
2019-02-23T12:27:42.732Z,20.30
2019-02-23T12:30:12.036Z,20.73
2019-02-23T12:32:41.371Z,20.80
2019-02-23T12:35:11.339Z,19.03
2019-02-23T12:37:40.623Z,17.90
2019-02-23T12:40:10.560Z,21.13
2019-02-23T12:42:39.872Z,18.07
2019-02-23T12:45:11.770Z,18.37
2019-02-23T12:47:41.083Z,21.20
2019-02-23T12:50:11.555Z,19.00
2019-02-23T12:52:40.889Z,16.90
2019-02-23T12:55:11.380Z,18.53
2019-02-23T12:57:40.650Z,20.20
2019-02-23T13:00:12.728Z,18.80
2019-02-23T13:02:41.987Z,15.80
2019-02-23T13:05:11.236Z,16.57
2019-02-23T13:07:40.494Z,17.40
2019-02-23T13:10:11.536Z,16.30
2019-02-23T13:12:44.176Z,20.10
2019-02-23T13:15:16.676Z,18.30
2019-02-23T13:17:49.178Z,18.50
2019-02-23T13:20:19.993Z,18.57
2019-02-23T13:22:50.797Z,17.27
2019-02-23T13:25:23.291Z,19.47
2019-02-23T13:27:55.834Z,19.97
2019-02-23T13:30:28.349Z,16.87
2019-02-23T13:33:00.850Z,19.90
2019-02-23T13:35:33.407Z,19.50
2019-02-23T13:38:05.974Z,21.53
2019-02-23T13:40:38.539Z,17.93
2019-02-23T13:43:11.127Z,20.60
2019-02-23T13:45:43.627Z,19.77
2019-02-23T13:48:16.153Z,22.77
2019-02-23T13:50:48.645Z,23.93
2019-02-23T13:53:21.167Z,20.77
2019-02-23T13:55:53.723Z,19.37
2019-02-23T13:58:26.236Z,21.80
2019-02-23T14:00:57.304Z,20.77
2019-02-23T14:03:29.816Z,22.00
2019-02-23T14:06:02.318Z,23.13
2019-02-23T14:08:34.846Z,19.93
2019-02-23T14:11:07.343Z,18.43
2019-02-23T14:13:39.880Z,16.53
2019-02-23T14:16:12.358Z,20.57
2019-02-23T14:18:43.102Z,20.67
2019-02-23T14:21:15.608Z,21.17
2019-02-23T14:23:46.491Z,24.13
2019-02-23T14:26:18.991Z,19.50
2019-02-23T14:28:49.805Z,19.70
2019-02-23T14:31:20.610Z,18.77
2019-02-23T14:33:51.511Z,18.77
2019-02-23T14:36:23.990Z,20.37
2019-02-23T14:38:55.117Z,22.23
2019-02-23T14:41:27.644Z,19.07
2019-02-23T14:44:00.152Z,20.47
2019-02-23T14:46:32.676Z,19.83
2019-02-23T14:49:05.205Z,19.37
2019-02-23T14:51:35.988Z,19.07
2019-02-23T14:54:08.505Z,18.60
2019-02-23T14:56:41.038Z,18.93
2019-02-23T14:59:12.863Z,19.30
2019-02-23T15:01:45.324Z,17.87
2019-02-23T15:04:17.840Z,15.67
2019-02-23T15:06:48.696Z,16.30
2019-02-23T15:09:21.242Z,16.33
2019-02-23T15:11:53.715Z,16.00
2019-02-23T15:14:26.237Z,13.57
2019-02-23T15:16:59.382Z,14.13
2019-02-23T15:19:32.106Z,13.63
2019-02-23T15:22:04.619Z,14.60
2019-02-23T15:24:37.178Z,14.90
2019-02-23T15:27:09.671Z,15.53
2019-02-23T15:29:40.604Z,15.40
2019-02-23T15:32:13.205Z,14.90
2019-02-23T15:34:44.035Z,14.50
2019-02-23T15:37:16.510Z,13.57
2019-02-23T15:39:47.422Z,14.63
2019-02-23T15:42:19.901Z,15.37
2019-02-23T15:44:52.426Z,13.87
2019-02-23T15:47:24.942Z,15.77
2019-02-23T15:49:55.882Z,16.40
2019-02-23T15:52:25.344Z,14.47
2019-02-23T15:54:54.633Z,14.93
2019-02-23T15:57:23.897Z,15.00
2019-02-23T15:59:53.156Z,15.00
2019-02-23T16:02:22.422Z,13.20
2019-02-23T16:04:52.861Z,17.10
2019-02-23T16:07:22.222Z,15.37
2019-02-23T16:09:51.474Z,14.90
2019-02-23T16:12:20.798Z,15.07
2019-02-23T16:14:50.062Z,13.77
2019-02-23T16:17:19.301Z,12.20
2019-02-23T16:19:48.546Z,14.47
2019-02-23T16:22:18.794Z,12.77
2019-02-23T16:24:48.150Z,13.13
2019-02-23T16:27:18.370Z,12.37
2019-02-23T16:30:08.921Z,14.07
2019-02-23T16:32:38.198Z,14.90
2019-02-23T16:35:08.078Z,15.20
2019-02-23T16:37:37.331Z,15.60
2019-02-23T16:40:35.475Z,12.93
2019-02-23T16:43:04.734Z,14.97
2019-02-23T16:45:34.039Z,14.00
2019-02-23T16:48:03.314Z,15.73
2019-02-23T16:50:34.201Z,22.77
2019-02-23T16:53:03.515Z,16.10
2019-02-23T16:55:32.728Z,18.17
2019-02-23T16:58:01.985Z,14.43
2019-02-23T17:00:31.200Z,14.90
2019-02-23T17:03:00.444Z,14.23
2019-02-23T17:05:30.672Z,13.83
2019-02-23T17:08:00.893Z,13.67
2019-02-23T17:10:30.117Z,14.17
2019-02-23T17:12:59.370Z,13.13
2019-02-23T17:15:28.625Z,14.27
2019-02-23T17:17:57.862Z,14.17
2019-02-23T17:20:27.177Z,17.23
2019-02-23T17:22:56.651Z,15.97
2019-02-23T17:25:25.895Z,14.33
2019-02-23T17:27:55.202Z,13.73
2019-02-23T17:30:24.452Z,11.93
2019-02-23T17:32:53.886Z,14.87
2019-02-23T17:35:23.396Z,13.20
2019-02-23T17:37:52.718Z,11.23
2019-02-23T17:40:22.004Z,14.83
2019-02-23T17:42:52.506Z,13.87
2019-02-23T17:45:21.786Z,15.47
2019-02-23T17:47:51.072Z,13.57
2019-02-23T17:50:20.290Z,11.47
2019-02-23T17:52:49.575Z,15.40
2019-02-23T17:55:18.834Z,14.87
2019-02-23T17:57:48.101Z,16.50
2019-02-23T18:00:19.054Z,15.80
2019-02-23T18:02:48.385Z,14.90
2019-02-23T18:05:17.642Z,17.27
2019-02-23T18:07:46.921Z,23.50
2019-02-23T18:10:16.178Z,28.23
2019-02-23T18:12:45.410Z,23.60
2019-02-23T18:15:14.840Z,17.97
2019-02-23T18:17:44.677Z,16.13
2019-02-23T18:20:14.198Z,14.43
2019-02-23T18:22:43.658Z,13.77
2019-02-23T18:25:12.957Z,12.83
2019-02-23T18:27:42.265Z,17.53
2019-02-23T18:30:14.179Z,17.97
2019-02-23T18:32:43.667Z,20.60
2019-02-23T18:35:12.965Z,16.23
2019-02-23T18:37:42.315Z,20.37
2019-02-23T18:40:11.670Z,17.30
2019-02-23T18:42:42.225Z,14.80
2019-02-23T18:45:11.455Z,18.73
2019-02-23T18:47:40.880Z,15.43
2019-02-23T18:50:10.143Z,20.03
2019-02-23T18:52:39.445Z,21.00
2019-02-23T18:55:09.749Z,15.90
2019-02-23T18:57:40.099Z,17.17
2019-02-23T19:00:11.911Z,18.67
2019-02-23T19:02:43.610Z,14.50
2019-02-23T19:05:14.970Z,14.53
2019-02-23T19:07:44.951Z,17.10
2019-02-23T19:10:15.057Z,15.40
2019-02-23T19:12:45.063Z,14.87
2019-02-23T19:15:14.680Z,20.83
2019-02-23T19:17:44.688Z,13.63
2019-02-23T19:20:17.100Z,17.77
2019-02-23T19:22:47.361Z,19.93
2019-02-23T19:25:17.950Z,17.33
2019-02-23T19:27:47.487Z,36.53
2019-02-23T19:30:17.377Z,26.07
2019-02-23T19:32:47.567Z,17.17
2019-02-23T19:35:17.118Z,18.47
2019-02-23T19:37:46.423Z,22.83
2019-02-23T19:40:15.694Z,23.50
2019-02-23T19:42:45.085Z,19.37
2019-02-23T19:45:16.182Z,24.53
2019-02-23T19:47:45.402Z,26.17
2019-02-23T19:50:18.102Z,27.53
2019-02-23T19:52:47.446Z,26.07
2019-02-23T19:55:17.595Z,25.13
2019-02-23T19:57:47.174Z,21.97
2019-02-23T20:00:16.454Z,55.17
2019-02-23T20:02:45.891Z,29.53
2019-02-23T20:05:16.870Z,35.63
2019-02-23T20:07:47.399Z,30.43
2019-02-23T20:10:16.688Z,30.27
2019-02-23T20:12:45.933Z,33.90
2019-02-23T20:15:15.476Z,27.70
2019-02-23T20:17:45.616Z,25.47
2019-02-23T20:20:15.330Z,25.33
2019-02-23T20:22:44.666Z,29.60
2019-02-23T20:25:14.040Z,17.73
2019-02-23T20:27:43.651Z,19.00
2019-02-23T20:30:13.419Z,23.77
2019-02-23T20:32:48.578Z,25.30
2019-02-23T20:35:17.927Z,18.33
2019-02-23T20:37:59.143Z,23.60
2019-02-23T20:40:28.968Z,15.63
2019-02-23T20:42:58.711Z,22.90
2019-02-23T20:45:28.306Z,18.87
2019-02-23T20:47:57.558Z,19.93
2019-02-23T20:50:26.854Z,20.30
2019-02-23T20:52:56.193Z,22.00
2019-02-23T20:55:25.431Z,22.20
2019-02-23T20:57:54.695Z,18.83
2019-02-23T21:00:24.137Z,23.77
2019-02-23T21:02:53.730Z,22.60
2019-02-23T21:05:23.015Z,25.27
2019-02-23T21:07:52.287Z,21.30
2019-02-23T21:10:22.068Z,29.70
2019-02-23T21:12:51.334Z,28.30
2019-02-23T21:15:20.586Z,21.90
2019-02-23T21:17:49.860Z,18.43
2019-02-23T21:20:19.122Z,18.20
2019-02-23T21:22:48.430Z,19.27
2019-02-23T21:25:17.690Z,24.50
2019-02-23T21:27:46.970Z,23.73
2019-02-23T21:30:16.552Z,24.93
2019-02-23T21:32:45.855Z,21.40
2019-02-23T21:35:15.104Z,29.47
2019-02-23T21:37:44.354Z,22.60
2019-02-23T21:40:13.629Z,25.23
2019-02-23T21:42:42.915Z,24.87
2019-02-23T21:45:12.156Z,31.97
2019-02-23T21:47:41.402Z,23.73
2019-02-23T21:50:11.732Z,27.67
2019-02-23T21:52:40.995Z,29.53
2019-02-23T21:55:10.278Z,24.47
2019-02-23T21:57:39.737Z,26.50
2019-02-23T22:00:09.920Z,27.77
2019-02-23T22:02:40.679Z,30.67
2019-02-23T22:05:12.655Z,32.70
2019-02-23T22:07:41.971Z,31.03
2019-02-23T22:10:11.247Z,27.93
2019-02-23T22:12:40.520Z,28.13
2019-02-23T22:15:09.788Z,24.73
2019-02-23T22:17:39.053Z,27.40
2019-02-23T22:20:08.507Z,28.77
2019-02-23T22:22:37.768Z,26.10
2019-02-23T22:25:07.287Z,27.50
2019-02-23T22:27:36.531Z,26.70
2019-02-23T22:30:07.339Z,27.27
2019-02-23T22:32:36.608Z,29.77
2019-02-23T22:35:06.123Z,25.17
2019-02-23T22:37:35.473Z,22.87
2019-02-23T22:40:06.274Z,23.43
2019-02-23T22:42:35.527Z,24.43
2019-02-23T22:45:06.727Z,23.43
2019-02-23T22:47:36.026Z,24.57
2019-02-23T22:50:07.528Z,28.87
2019-02-23T22:52:36.827Z,23.93
2019-02-23T22:55:06.446Z,28.73
2019-02-23T22:57:40.499Z,20.90
2019-02-23T23:00:09.836Z,20.50
2019-02-23T23:02:40.730Z,27.77
2019-02-23T23:05:10.136Z,24.63
2019-02-23T23:07:39.382Z,20.00
2019-02-23T23:10:08.661Z,21.20
2019-02-23T23:12:37.907Z,22.63
2019-02-23T23:15:08.052Z,22.27
2019-02-23T23:17:37.359Z,18.60
2019-02-23T23:20:07.903Z,21.23
2019-02-23T23:22:37.133Z,20.30
2019-02-23T23:25:07.140Z,20.13
2019-02-23T23:27:36.527Z,19.73
2019-02-23T23:30:07.930Z,17.63
2019-02-23T23:32:37.277Z,19.57
2019-02-23T23:35:06.559Z,19.80
2019-02-23T23:37:35.981Z,20.17
2019-02-23T23:40:06.299Z,17.20
2019-02-23T23:42:35.555Z,21.00
2019-02-23T23:45:05.883Z,18.40
2019-02-23T23:47:35.137Z,21.37
2019-02-23T23:50:05.339Z,20.63
2019-02-23T23:52:34.596Z,20.73
2019-02-23T23:55:04.027Z,20.23
2019-02-23T23:57:33.325Z,18.73
